Time;durP1;ratioP1;P1;durP2;ratioP2;P2;SDS_P1;SDS_P2;PMS_P1;PMS_P2;Temp;Humidity;BMP_temperature;BMP_pressure;BME280_temperature;BME280_humidity;BME280_pressure;Samples;Min_cycle;Max_cycle;Signal;HPM_P1;HPM_P2
2022/04/28 00:02:53;;;;;;;0.80;0.50;;;19.80;48.00;;;;;;6325498;28;20072;-72
2022/04/28 00:05:54;;;;;;;0.90;0.60;;;19.80;48.00;;;;;;6325635;28;20035;-73
2022/04/28 00:08:55;;;;;;;1.05;0.60;;;19.80;48.00;;;;;;6343528;28;20024;-72
2022/04/28 00:11:56;;;;;;;0.80;0.63;;;19.80;48.00;;;;;;6325266;28;20104;-73
2022/04/28 00:14:58;;;;;;;0.55;0.45;;;19.80;48.00;;;;;;6325133;28;20027;-71
2022/04/28 00:17:58;;;;;;;0.82;0.50;;;19.80;48.00;;;;;;6343439;28;20031;-71
2022/04/28 00:20:59;;;;;;;0.93;0.60;;;19.80;48.10;;;;;;6325018;28;20023;-72
2022/04/28 00:23:59;;;;;;;0.88;0.70;;;19.80;48.10;;;;;;6343237;28;20024;-73
2022/04/28 00:27:00;;;;;;;1.08;0.63;;;19.80;48.00;;;;;;6325132;28;20053;-72
2022/04/28 00:30:01;;;;;;;0.55;0.52;;;19.80;48.00;;;;;;6324940;28;20023;-72
2022/04/28 00:33:02;;;;;;;1.13;0.60;;;19.80;48.00;;;;;;6342209;28;20016;-73
2022/04/28 00:36:02;;;;;;;0.80;0.68;;;19.80;48.10;;;;;;6341734;28;20028;-73
2022/04/28 00:39:03;;;;;;;0.70;0.50;;;19.80;48.10;;;;;;6341538;28;20059;-73
2022/04/28 00:42:12;;;;;;;0.50;0.50;;;19.80;48.00;;;;;;6342313;28;20091;-73
2022/04/28 00:45:12;;;;;;;0.75;0.70;;;19.80;48.00;;;;;;6342722;28;20027;-72
2022/04/28 00:51:37;;;;;;;0.73;0.60;;;19.80;48.10;;;;;;6342994;28;20032;-72
2022/04/28 00:54:37;;;;;;;0.77;0.70;;;19.80;48.10;;;;;;6343151;28;20019;-72
2022/04/28 00:57:38;;;;;;;0.90;0.68;;;19.80;48.00;;;;;;6342834;28;20567;-72
2022/04/28 01:00:43;;;;;;;0.80;0.70;;;19.80;48.00;;;;;;6324784;28;20123;-72
2022/04/28 01:03:46;;;;;;;0.55;0.55;;;19.80;48.10;;;;;;6346672;28;20516;-74
2022/04/28 01:06:47;;;;;;;1.08;0.68;;;19.80;48.10;;;;;;6329615;28;20087;-73
2022/04/28 01:09:48;;;;;;;0.77;0.60;;;19.80;48.10;;;;;;6348144;28;20036;-73
2022/04/28 01:12:49;;;;;;;0.50;0.50;;;19.80;48.10;;;;;;6347733;28;20027;-73
2022/04/28 01:15:50;;;;;;;0.68;0.65;;;19.80;48.10;;;;;;6347718;28;20031;-73
2022/04/28 01:18:51;;;;;;;0.88;0.70;;;19.80;48.10;;;;;;6347686;28;20039;-72
2022/04/28 01:21:52;;;;;;;0.50;0.50;;;19.80;48.10;;;;;;6347832;28;20020;-72
2022/04/28 01:24:52;;;;;;;0.60;0.60;;;19.80;48.10;;;;;;6347365;28;20020;-72
2022/04/28 01:27:53;;;;;;;1.05;0.57;;;19.80;48.00;;;;;;6329256;28;20028;-73
2022/04/28 01:30:54;;;;;;;1.02;0.77;;;19.80;48.00;;;;;;6312330;28;20035;-72
2022/04/28 01:33:55;;;;;;;0.82;0.68;;;19.80;48.10;;;;;;6304155;28;20024;-72
2022/04/28 01:36:55;;;;;;;1.60;0.80;;;19.80;48.10;;;;;;6303755;28;20024;-72
2022/04/28 01:39:56;;;;;;;0.80;0.73;;;19.80;48.10;;;;;;6303132;28;20044;-72
2022/04/28 01:42:57;;;;;;;1.25;0.63;;;19.80;48.10;;;;;;6321949;28;20079;-72
2022/04/28 01:45:57;;;;;;;0.60;0.60;;;19.80;48.10;;;;;;6303257;28;20054;-73
2022/04/28 01:48:58;;;;;;;2.08;0.60;;;19.80;48.10;;;;;;6321650;28;20060;-73
2022/04/28 01:55:18;;;;;;;0.70;0.65;;;19.80;48.10;;;;;;6321620;28;20383;-71
2022/04/28 01:58:19;;;;;;;1.50;0.70;;;19.80;48.10;;;;;;6321641;28;20074;-72
2022/04/28 02:01:20;;;;;;;1.33;0.80;;;19.80;48.20;;;;;;6321394;28;20028;-72
2022/04/28 02:04:20;;;;;;;0.77;0.70;;;19.80;48.10;;;;;;6302954;28;20394;-73
2022/04/28 02:07:21;;;;;;;0.63;0.52;;;19.80;48.10;;;;;;6302821;28;20024;-73
2022/04/28 02:10:22;;;;;;;0.50;0.50;;;19.80;48.10;;;;;;6321013;28;20610;-72
2022/04/28 02:13:22;;;;;;;1.35;0.80;;;19.80;48.10;;;;;;6302461;28;20467;-73
2022/04/28 02:16:23;;;;;;;1.10;0.60;;;19.80;48.10;;;;;;6320928;28;20036;-73
2022/04/28 02:19:24;;;;;;;0.75;0.68;;;19.80;48.10;;;;;;6320960;28;20169;-73
2022/04/28 02:22:24;;;;;;;1.23;0.80;;;19.80;48.10;;;;;;6302689;28;20039;-72
2022/04/28 02:25:25;;;;;;;1.13;0.77;;;19.80;48.10;;;;;;6320593;28;20452;-72
2022/04/28 02:28:26;;;;;;;0.70;0.57;;;19.80;48.10;;;;;;6302754;28;20044;-72
2022/04/28 02:31:27;;;;;;;0.60;0.60;;;19.80;48.20;;;;;;6322850;28;20048;-72
2022/04/28 02:34:29;;;;;;;0.80;0.80;;;19.80;48.10;;;;;;6346324;28;20019;-73
2022/04/28 02:37:30;;;;;;;0.75;0.60;;;19.80;48.10;;;;;;6345640;28;20379;-72
2022/04/28 02:40:31;;;;;;;0.88;0.65;;;19.80;48.10;;;;;;6345836;28;20078;-73
2022/04/28 02:43:32;;;;;;;0.65;0.60;;;19.80;48.10;;;;;;6327024;28;20019;-72
2022/04/28 02:46:33;;;;;;;1.30;0.80;;;19.80;48.10;;;;;;6327612;28;20020;-73
2022/04/28 02:49:34;;;;;;;0.90;0.60;;;19.80;48.20;;;;;;6326848;28;20062;-72
2022/04/28 02:52:34;;;;;;;1.15;0.95;;;19.80;48.10;;;;;;6326829;28;20023;-72
2022/04/28 02:55:35;;;;;;;0.80;0.60;;;19.80;48.10;;;;;;6327147;28;20075;-72
2022/04/28 02:58:36;;;;;;;1.13;0.68;;;19.80;48.10;;;;;;6345234;28;20028;-72
2022/04/28 03:01:37;;;;;;;0.68;0.60;;;19.80;48.10;;;;;;6326929;28;20557;-72
2022/04/28 03:04:37;;;;;;;0.77;0.60;;;19.80;48.10;;;;;;6327066;28;20027;-72
2022/04/28 03:11:09;;;;;;;1.48;0.70;;;19.80;48.70;;;;;;6345114;28;20043;-72
2022/04/28 03:14:10;;;;;;;0.80;0.52;;;19.80;48.10;;;;;;6327279;28;20406;-72
2022/04/28 03:17:11;;;;;;;0.70;0.60;;;19.80;48.10;;;;;;6326826;28;20104;-73
2022/04/28 03:20:12;;;;;;;1.52;0.77;;;19.80;48.00;;;;;;6345512;28;20023;-72
2022/04/28 03:23:14;;;;;;;0.65;0.50;;;19.80;48.20;;;;;;6326942;28;20486;-73
2022/04/28 03:26:14;;;;;;;0.85;0.60;;;19.80;48.10;;;;;;6326724;28;20423;-73
2022/04/28 03:29:16;;;;;;;0.70;0.50;;;19.80;48.10;;;;;;6323875;28;20031;-72
2022/04/28 03:32:16;;;;;;;0.93;0.70;;;19.80;48.10;;;;;;6313932;28;20016;-72
2022/04/28 03:35:17;;;;;;;1.00;0.70;;;19.80;48.10;;;;;;6344589;28;20059;-72
2022/04/28 03:38:17;;;;;;;0.77;0.60;;;19.80;48.10;;;;;;6326214;28;20030;-73
2022/04/28 03:41:18;;;;;;;0.88;0.60;;;19.80;48.10;;;;;;6344326;28;20052;-72
2022/04/28 03:44:19;;;;;;;1.27;0.70;;;19.80;48.10;;;;;;6325977;28;20053;-73
2022/04/28 03:47:19;;;;;;;1.23;0.80;;;19.80;48.10;;;;;;6326327;28;20069;-72
2022/04/28 03:50:20;;;;;;;0.40;0.40;;;19.80;48.10;;;;;;6325934;28;20031;-72
2022/04/28 03:53:21;;;;;;;0.50;0.50;;;19.80;48.10;;;;;;6343804;28;20026;-72
2022/04/28 03:56:22;;;;;;;1.33;0.60;;;19.80;48.10;;;;;;6325917;28;20121;-72
2022/04/28 03:59:23;;;;;;;1.30;0.60;;;19.80;48.10;;;;;;6325894;28;20016;-72
2022/04/28 04:02:24;;;;;;;0.90;0.80;;;19.80;48.10;;;;;;6325720;28;20039;-72
2022/04/28 04:05:24;;;;;;;0.70;0.70;;;19.80;48.10;;;;;;6325582;28;20099;-72
2022/04/28 04:08:25;;;;;;;0.57;0.50;;;19.80;48.00;;;;;;6325390;28;20076;-73
2022/04/28 04:11:25;;;;;;;0.90;0.77;;;19.80;48.00;;;;;;6343450;28;20024;-73
2022/04/28 04:14:27;;;;;;;1.58;0.80;;;19.80;48.10;;;;;;6325488;28;20031;-73
2022/04/28 04:17:27;;;;;;;1.10;0.70;;;19.80;48.00;;;;;;6325328;28;20020;-72
2022/04/28 04:20:28;;;;;;;0.93;0.50;;;19.80;48.00;;;;;;6325688;28;20030;-72
2022/04/28 04:23:29;;;;;;;0.82;0.68;;;19.80;48.10;;;;;;6325632;28;20047;-72
2022/04/28 04:26:30;;;;;;;0.73;0.50;;;19.80;48.10;;;;;;6324931;28;20063;-72
2022/04/28 04:29:30;;;;;;;0.60;0.55;;;19.80;48.00;;;;;;6320507;28;20043;-75
2022/04/28 04:32:31;;;;;;;1.33;0.80;;;19.80;48.00;;;;;;6318401;28;20032;-73
2022/04/28 04:35:31;;;;;;;0.40;0.40;;;19.80;48.00;;;;;;6318061;28;20047;-73
2022/04/28 04:38:32;;;;;;;1.60;0.63;;;19.80;48.00;;;;;;6304769;28;20506;-72
2022/04/28 04:41:32;;;;;;;1.45;0.70;;;19.80;47.90;;;;;;6343686;28;20059;-73
2022/04/28 04:44:33;;;;;;;0.60;0.60;;;19.80;47.90;;;;;;6343168;28;20522;-73
2022/04/28 04:47:34;;;;;;;0.82;0.60;;;19.80;47.90;;;;;;6324774;28;20034;-72
2022/04/28 04:50:35;;;;;;;1.05;0.70;;;19.80;47.90;;;;;;6343284;28;20027;-73
2022/04/28 04:53:35;;;;;;;0.50;0.50;;;19.80;47.90;;;;;;6325218;28;20024;-74
2022/04/28 04:56:36;;;;;;;0.75;0.52;;;19.80;47.90;;;;;;6343175;28;20023;-73
2022/04/28 05:03:34;;;;;;;0.73;0.60;;;19.80;47.90;;;;;;6343370;28;20019;-72
2022/04/28 05:06:35;;;;;;;1.00;0.60;;;19.80;47.90;;;;;;6342879;28;20114;-72
2022/04/28 05:09:37;;;;;;;0.70;0.70;;;19.80;47.90;;;;;;6324739;28;20035;-72
2022/04/28 05:12:37;;;;;;;1.33;0.70;;;19.90;47.90;;;;;;6342788;28;20023;-73
2022/04/28 05:15:38;;;;;;;0.60;0.60;;;19.80;47.90;;;;;;6324589;28;20059;-72
2022/04/28 05:18:39;;;;;;;0.90;0.60;;;19.90;47.90;;;;;;6324543;28;20051;-72
2022/04/28 05:21:39;;;;;;;0.73;0.70;;;19.90;47.90;;;;;;6325039;28;20108;-72
2022/04/28 05:24:40;;;;;;;0.70;0.60;;;19.90;47.90;;;;;;6324590;28;20035;-71
2022/04/28 05:27:41;;;;;;;0.88;0.65;;;19.80;47.80;;;;;;6324718;28;20509;-72
2022/04/28 05:30:41;;;;;;;1.25;0.80;;;19.90;47.80;;;;;;6342365;28;20653;-72
2022/04/28 05:33:42;;;;;;;0.82;0.57;;;19.90;47.80;;;;;;6324551;28;20063;-73
2022/04/28 05:36:44;;;;;;;0.68;0.60;;;19.90;47.80;;;;;;6324583;28;20034;-72
2022/04/28 05:39:45;;;;;;;1.45;0.70;;;19.90;47.80;;;;;;6342425;28;20253;-73
2022/04/28 05:46:07;;;;;;;0.70;0.70;;;19.90;47.80;;;;;;6342557;28;20027;-72
2022/04/28 05:49:08;;;;;;;0.73;0.60;;;19.90;47.80;;;;;;6325290;28;20560;-72
2022/04/28 05:52:09;;;;;;;1.02;0.70;;;19.90;47.80;;;;;;6347209;28;20024;-72
2022/04/28 05:55:09;;;;;;;0.38;0.38;;;19.90;47.60;;;;;;6347044;28;20026;-72
2022/04/28 05:58:11;;;;;;;1.65;0.70;;;19.90;47.60;;;;;;6347207;28;20530;-72
2022/04/28 06:01:11;;;;;;;1.27;0.82;;;19.90;47.70;;;;;;6341814;28;20027;-72
2022/04/28 06:04:12;;;;;;;1.13;0.73;;;19.90;47.60;;;;;;6331524;28;20501;-72
2022/04/28 06:07:13;;;;;;;0.90;0.65;;;19.90;47.60;;;;;;6348630;28;20024;-72
2022/04/28 06:10:14;;;;;;;0.90;0.60;;;19.90;47.60;;;;;;6330599;28;20027;-72
2022/04/28 06:13:14;;;;;;;1.30;0.80;;;19.90;47.60;;;;;;6330866;28;20050;-72
2022/04/28 06:16:15;;;;;;;0.85;0.70;;;19.90;47.70;;;;;;6330528;28;20393;-72
2022/04/28 06:19:18;;;;;;;0.80;0.60;;;19.90;47.60;;;;;;6330021;28;20031;-72
2022/04/28 06:22:18;;;;;;;0.90;0.63;;;19.90;47.60;;;;;;6330101;28;20102;-72
2022/04/28 06:25:19;;;;;;;0.60;0.50;;;19.90;47.60;;;;;;6343843;27;20028;-71
2022/04/28 06:28:20;;;;;;;1.50;0.63;;;19.90;47.60;;;;;;6318543;28;20090;-72
2022/04/28 06:31:20;;;;;;;0.70;0.63;;;19.90;47.60;;;;;;6311536;28;20038;-71
2022/04/28 06:34:21;;;;;;;0.70;0.60;;;19.90;47.60;;;;;;6323147;28;20023;-72
2022/04/28 06:37:22;;;;;;;0.82;0.70;;;19.90;47.60;;;;;;6328517;28;20051;-72
2022/04/28 06:40:23;;;;;;;0.88;0.65;;;19.90;47.70;;;;;;6327797;28;20051;-73
2022/04/28 06:43:24;;;;;;;2.40;0.60;;;19.90;47.70;;;;;;6326587;28;20039;-72
2022/04/28 06:46:24;;;;;;;0.68;0.57;;;19.90;47.70;;;;;;6345745;28;20550;-71
2022/04/28 06:49:25;;;;;;;1.23;0.70;;;19.90;47.70;;;;;;6328614;28;20529;-72
2022/04/28 06:52:27;;;;;;;0.73;0.60;;;19.90;47.70;;;;;;6328421;28;20101;-72
2022/04/28 06:55:27;;;;;;;0.77;0.70;;;19.90;47.80;;;;;;6327637;28;20031;-72
2022/04/28 06:58:28;;;;;;;0.75;0.65;;;19.90;47.70;;;;;;6328223;28;20073;-72
2022/04/28 07:01:28;;;;;;;0.75;0.52;;;19.90;47.70;;;;;;6327309;28;20432;-72
2022/04/28 07:04:30;;;;;;;1.05;0.70;;;19.90;47.80;;;;;;6327932;28;20035;-72
2022/04/28 07:07:31;;;;;;;2.53;0.70;;;19.90;47.80;;;;;;6327769;28;20102;-71
2022/04/28 07:10:32;;;;;;;3.35;0.65;;;19.90;47.80;;;;;;6345878;28;20020;-72
2022/04/28 07:13:36;;;;;;;1.30;0.60;;;19.90;47.80;;;;;;6345770;28;20049;-72
2022/04/28 07:16:36;;;;;;;0.88;0.77;;;19.90;47.80;;;;;;6327525;28;20055;-73
2022/04/28 07:19:37;;;;;;;3.08;0.90;;;19.90;48.10;;;;;;6327009;28;20026;-72
2022/04/28 07:22:39;;;;;;;3.65;0.90;;;20.00;48.20;;;;;;6345470;28;20089;-72
2022/04/28 07:25:40;;;;;;;1.20;0.80;;;20.10;48.70;;;;;;6326999;28;20062;-72
2022/04/28 07:28:40;;;;;;;0.65;0.60;;;20.20;48.70;;;;;;6321920;28;20024;-72
2022/04/28 07:31:41;;;;;;;1.27;0.75;;;20.10;48.20;;;;;;6325873;28;20470;-72
2022/04/28 07:34:41;;;;;;;2.50;0.65;;;20.10;48.00;;;;;;6346010;28;20384;-72
2022/04/28 07:37:42;;;;;;;1.90;0.63;;;20.10;48.10;;;;;;6327119;28;20023;-72
2022/04/28 07:40:43;;;;;;;0.95;0.70;;;20.00;48.10;;;;;;6345896;28;20050;-72
2022/04/28 07:43:43;;;;;;;0.88;0.70;;;20.00;48.30;;;;;;6345042;28;20764;-73
2022/04/28 07:46:44;;;;;;;0.70;0.60;;;20.00;48.30;;;;;;6308608;27;20047;-72
2022/04/28 07:49:44;;;;;;;3.50;0.82;;;20.00;48.40;;;;;;6324416;28;20031;-72
2022/04/28 07:52:45;;;;;;;0.90;0.68;;;20.00;48.30;;;;;;6346079;28;20020;-72
2022/04/28 07:56:10;;;;;;;1.23;0.70;;;20.00;48.50;;;;;;6307718;27;20026;-72
2022/04/28 07:59:09;;;;;;;0.88;0.55;;;20.10;48.20;;;;;;6345552;28;20470;-72
2022/04/28 08:02:11;;;;;;;2.65;0.90;;;20.10;47.90;;;;;;6346027;28;20390;-72
2022/04/28 08:05:12;;;;;;;1.63;0.77;;;20.10;47.60;;;;;;6345796;28;20393;-72
2022/04/28 08:08:12;;;;;;;0.80;0.68;;;20.20;47.70;;;;;;6327289;28;20096;-72
2022/04/28 08:11:13;;;;;;;1.30;0.68;;;20.20;47.60;;;;;;6344780;27;20019;-72
2022/04/28 08:14:14;;;;;;;2.50;0.65;;;20.20;47.70;;;;;;6371065;27;20030;-71
2022/04/28 08:17:15;;;;;;;2.97;0.90;;;20.20;47.90;;;;;;6370984;27;20318;-72
2022/04/28 08:20:16;;;;;;;1.30;0.60;;;20.20;48.00;;;;;;6326725;28;20024;-73
2022/04/28 08:23:17;;;;;;;1.38;0.60;;;20.20;48.10;;;;;;6326752;28;20026;-72
2022/04/28 08:26:17;;;;;;;1.33;0.70;;;20.20;48.20;;;;;;6331595;28;20036;-71
2022/04/28 08:29:18;;;;;;;1.58;0.55;;;20.20;48.30;;;;;;6341674;28;20036;-72
2022/04/28 08:32:18;;;;;;;1.30;0.73;;;20.20;48.50;;;;;;6345269;28;20027;-73
2022/04/28 08:35:19;;;;;;;1.38;0.70;;;20.20;48.30;;;;;;6326525;28;20485;-72
2022/04/28 08:38:20;;;;;;;1.20;0.68;;;20.30;48.00;;;;;;6344377;28;20040;-73
2022/04/28 08:41:34;;;;;;;3.28;0.63;;;20.30;47.90;;;;;;6332222;28;20032;-71
2022/04/28 08:44:37;;;;;;;3.67;0.65;;;20.30;47.90;;;;;;6319184;28;20058;-72
2022/04/28 08:47:38;;;;;;;1.85;0.60;;;20.30;47.90;;;;;;6319681;28;20105;-72
2022/04/28 08:50:39;;;;;;;5.57;0.73;;;20.30;48.20;;;;;;6309808;28;20044;-72
2022/04/28 08:53:40;;;;;;;4.55;0.77;;;20.30;48.20;;;;;;6328669;28;20533;-73
2022/04/28 08:56:41;;;;;;;1.55;0.70;;;20.20;48.20;;;;;;6301081;28;20016;-71
2022/04/28 08:59:43;;;;;;;0.98;0.68;;;20.30;48.50;;;;;;6318981;28;20024;-71
2022/04/28 09:02:44;;;;;;;1.85;0.60;;;20.30;48.10;;;;;;6293990;28;20032;-71
2022/04/28 09:05:46;;;;;;;1.10;0.70;;;20.30;47.80;;;;;;6310472;28;20096;-73
2022/04/28 09:08:47;;;;;;;1.92;0.60;;;20.30;48.00;;;;;;6319428;28;20024;-72
2022/04/28 09:11:48;;;;;;;2.65;0.75;;;20.30;47.90;;;;;;6300799;28;20077;-72
2022/04/28 09:14:48;;;;;;;1.10;0.70;;;20.30;48.10;;;;;;6301571;28;20021;-72
2022/04/28 09:17:49;;;;;;;2.85;0.70;;;20.30;48.10;;;;;;6335541;28;20039;-73
2022/04/28 09:20:51;;;;;;;2.45;0.70;;;20.30;48.10;;;;;;6300824;28;20081;-73
2022/04/28 09:23:52;;;;;;;1.30;0.80;;;20.30;48.20;;;;;;6295192;28;20502;-69
2022/04/28 09:26:54;;;;;;;0.90;0.60;;;20.30;48.20;;;;;;6297792;28;20021;-70
2022/04/28 09:29:54;;;;;;;3.17;0.95;;;20.30;48.20;;;;;;6324173;28;20085;-72
2022/04/28 09:32:58;;;;;;;3.45;1.45;;;20.20;47.90;;;;;;6307463;28;20583;-72
2022/04/28 09:35:58;;;;;;;2.58;1.40;;;20.20;48.20;;;;;;6300140;28;20509;-72
2022/04/28 09:38:59;;;;;;;3.88;1.50;;;20.20;47.50;;;;;;6305553;28;20040;-72
2022/04/28 09:45:22;;;;;;;2.38;1.30;;;20.30;48.30;;;;;;6323990;28;20027;-72
2022/04/28 09:48:28;;;;;;;11.05;1.85;;;20.30;47.50;;;;;;6323676;28;20028;-73
2022/04/28 09:51:29;;;;;;;10.48;1.40;;;20.30;47.70;;;;;;6305352;28;20027;-72
2022/04/28 09:54:35;;;;;;;3.13;1.17;;;20.30;48.00;;;;;;6323896;28;20088;-73
2022/04/28 09:57:36;;;;;;;3.53;1.08;;;20.30;47.90;;;;;;6339593;28;20024;-72
2022/04/28 10:00:37;;;;;;;8.75;1.52;;;20.40;47.80;;;;;;6305151;28;20546;-72
2022/04/28 10:03:40;;;;;;;5.90;1.88;;;20.40;47.60;;;;;;6305000;28;20024;-72
2022/04/28 10:06:41;;;;;;;3.58;1.40;;;20.40;47.50;;;;;;6304978;28;20505;-72
2022/04/28 10:09:47;;;;;;;6.90;1.70;;;20.40;47.40;;;;;;6310971;28;20027;-72
2022/04/28 10:12:48;;;;;;;3.17;1.20;;;20.40;47.40;;;;;;6330187;28;20023;-72
2022/04/28 10:15:56;;;;;;;4.57;1.30;;;20.40;47.50;;;;;;6310838;28;20027;-72
2022/04/28 10:19:12;;;;;;;1.85;1.02;;;20.40;47.40;;;;;;6304680;28;20497;-72
2022/04/28 10:22:16;;;;;;;2.20;1.10;;;20.40;47.30;;;;;;6323205;28;20032;-74
2022/04/28 10:35:39;;;;;;;2.70;1.00;;;20.30;47.80;;;;;;6321844;28;20410;-73
2022/04/28 10:38:42;;;;;;;2.25;1.27;;;20.30;47.80;;;;;;6304219;28;20210;-73
2022/04/28 10:41:42;;;;;;;4.50;1.30;;;20.30;47.80;;;;;;6304179;28;20775;-74
2022/04/28 10:44:54;;;;;;;3.10;1.35;;;20.30;47.90;;;;;;6322310;28;20020;-73
2022/04/28 10:48:29;;;;;;;2.25;1.20;;;20.30;47.90;;;;;;6322572;28;20554;-74
2022/04/28 10:51:32;;;;;;;4.18;1.20;;;20.30;48.10;;;;;;6304160;28;20068;-74
2022/04/28 10:54:43;;;;;;;4.03;1.00;;;20.30;48.10;;;;;;6303907;28;20020;-74
2022/04/28 10:57:44;;;;;;;2.28;1.08;;;20.30;48.10;;;;;;6322092;28;20039;-73
2022/04/28 11:00:58;;;;;;;2.15;1.10;;;20.40;48.10;;;;;;6322006;28;20402;-73
2022/04/28 11:04:03;;;;;;;1.67;1.00;;;20.40;48.00;;;;;;6303620;28;20027;-74
2022/04/28 11:07:11;;;;;;;;;;;20.40;47.90;;;;;;6304148;28;20435;-74
2022/04/28 11:10:13;;;;;;;1.95;0.80;;;20.40;47.90;;;;;;6314133;28;19911;-73
2022/04/28 11:13:15;;;;;;;5.32;1.13;;;20.40;47.90;;;;;;6328630;28;20049;-74
2022/04/28 11:16:17;;;;;;;2.65;1.10;;;20.40;47.90;;;;;;6346847;28;20019;-73
2022/04/28 11:19:18;;;;;;;4.38;1.20;;;20.50;48.00;;;;;;6328371;28;20024;-73
2022/04/28 11:22:19;;;;;;;1.45;1.00;;;20.40;48.00;;;;;;6307826;28;20065;-73
2022/04/28 11:25:21;;;;;;;27.77;2.22;;;20.50;48.20;;;;;;6319859;28;20501;-73
2022/04/28 11:28:22;;;;;;;5.10;1.10;;;20.40;48.70;;;;;;6301578;28;20019;-73
2022/04/28 11:31:22;;;;;;;8.45;1.30;;;20.50;48.40;;;;;;6315965;28;20081;-72
2022/04/28 11:34:23;;;;;;;2.58;1.10;;;20.40;48.60;;;;;;6319366;28;20022;-73
2022/04/28 11:37:26;;;;;;;3.28;1.05;;;20.40;48.40;;;;;;6319078;28;20027;-73
2022/04/28 11:40:26;;;;;;;1.73;1.00;;;20.40;49.10;;;;;;6319473;28;20044;-73
2022/04/28 11:43:31;;;;;;;2.75;1.30;;;20.40;48.40;;;;;;6298465;28;20118;-72
2022/04/28 11:46:34;;;;;;;2.70;0.90;;;20.30;48.30;;;;;;6275023;28;20032;-73
2022/04/28 11:49:39;;;;;;;2.72;0.88;;;20.30;48.20;;;;;;6293689;28;20032;-73
2022/04/28 11:52:40;;;;;;;1.48;1.08;;;20.30;48.80;;;;;;6293536;28;20021;-73
2022/04/28 11:55:42;;;;;;;1.70;0.90;;;20.30;48.50;;;;;;6275679;28;20086;-73
2022/04/28 11:58:46;;;;;;;4.93;0.90;;;20.30;48.40;;;;;;6275477;28;20024;-73
2022/04/28 12:01:47;;;;;;;7.63;1.00;;;20.30;48.30;;;;;;6293394;28;20099;-73
2022/04/28 12:04:47;;;;;;;4.03;1.15;;;20.30;48.30;;;;;;6275674;28;20024;-73
2022/04/28 12:07:52;;;;;;;1.95;1.00;;;20.30;48.30;;;;;;6275684;28;20056;-72
2022/04/28 12:14:27;;;;;;;1.30;1.00;;;20.30;48.30;;;;;;6303883;28;20051;-72
2022/04/28 12:20:58;;;;;;;2.15;0.95;;;20.30;48.30;;;;;;6318358;28;20024;-73
2022/04/28 12:24:00;;;;;;;2.30;1.10;;;20.20;48.20;;;;;;6319155;28;20020;-71
2022/04/28 12:27:08;;;;;;;1.60;0.93;;;20.20;48.20;;;;;;6318729;28;20382;-71
2022/04/28 12:30:12;;;;;;;4.32;1.48;;;20.20;48.20;;;;;;6300474;28;20028;-72
2022/04/28 12:33:18;;;;;;;3.00;1.38;;;20.20;48.20;;;;;;6300421;28;20024;-72
2022/04/28 12:36:19;;;;;;;4.82;1.85;;;20.20;48.10;;;;;;6300670;28;20027;-72
2022/04/28 12:39:22;;;;;;;7.75;1.92;;;20.20;48.10;;;;;;6318397;28;20597;-72
2022/04/28 12:42:25;;;;;;;5.63;2.03;;;20.20;48.10;;;;;;6318770;28;20031;-72
2022/04/28 12:45:40;;;;;;;7.68;2.67;;;20.20;48.10;;;;;;6300781;28;20078;-72
2022/04/28 12:48:41;;;;;;;4.50;1.60;;;20.20;48.10;;;;;;6318652;28;20050;-72
2022/04/28 12:51:42;;;;;;;13.68;3.70;;;20.20;48.70;;;;;;6300429;28;20119;-72
2022/04/28 12:54:43;;;;;;;15.98;4.43;;;20.20;48.40;;;;;;6299838;28;20119;-71
2022/04/28 12:57:46;;;;;;;15.32;4.57;;;20.30;48.70;;;;;;6301013;28;20115;-72
2022/04/28 13:00:51;;;;;;;15.35;5.03;;;20.30;48.80;;;;;;6323419;28;20427;-72
2022/04/28 13:04:22;;;;;;;9.85;3.42;;;20.30;48.70;;;;;;6305272;28;20032;-71
2022/04/28 13:07:22;;;;;;;14.27;5.00;;;20.30;48.60;;;;;;6305535;28;20455;-72
2022/04/28 13:10:24;;;;;;;19.65;6.00;;;20.30;48.60;;;;;;6304733;28;20032;-71
2022/04/28 13:13:25;;;;;;;12.27;4.38;;;20.30;48.80;;;;;;6327336;28;20508;-71
2022/04/28 13:16:26;;;;;;;13.25;4.32;;;20.30;48.60;;;;;;6330392;28;20019;-71
2022/04/28 13:19:26;;;;;;;19.48;6.60;;;20.30;48.70;;;;;;6326565;28;20035;-72
2022/04/28 13:22:27;;;;;;;21.15;7.15;;;20.30;48.90;;;;;;6322168;28;20706;-72
2022/04/28 13:25:28;;;;;;;23.35;6.65;;;20.30;49.00;;;;;;6303750;28;20067;-71
2022/04/28 13:28:28;;;;;;;15.20;4.68;;;20.40;49.70;;;;;;6322319;28;20028;-72
2022/04/28 13:31:29;;;;;;;28.00;9.18;;;20.40;49.70;;;;;;6305810;28;20355;-72
2022/04/28 13:34:30;;;;;;;24.60;7.70;;;20.40;49.80;;;;;;6322636;28;20028;-71
2022/04/28 13:37:30;;;;;;;20.52;7.13;;;20.40;49.60;;;;;;6304276;28;20028;-71
2022/04/28 13:40:32;;;;;;;22.48;7.30;;;20.40;49.50;;;;;;6303862;28;20036;-71
2022/04/28 13:43:33;;;;;;;38.40;13.25;;;20.40;49.50;;;;;;6303917;28;20490;-70
2022/04/28 13:46:34;;;;;;;29.23;9.35;;;20.40;49.30;;;;;;6322286;28;20364;-71
2022/04/28 13:49:34;;;;;;;22.35;7.90;;;20.40;49.30;;;;;;6321791;28;20039;-70
2022/04/28 13:52:35;;;;;;;21.45;7.65;;;20.30;49.20;;;;;;6322638;28;20111;-71
2022/04/28 13:55:38;;;;;;;25.52;8.52;;;20.40;49.30;;;;;;6322602;28;20012;-72
2022/04/28 13:58:39;;;;;;;18.52;6.93;;;20.40;49.30;;;;;;6321783;28;20474;-72
2022/04/28 14:01:40;;;;;;;21.92;7.50;;;20.30;49.20;;;;;;6321988;28;20051;-72
2022/04/28 14:04:41;;;;;;;16.92;7.07;;;20.30;49.20;;;;;;6322491;28;20107;-71
2022/04/28 14:07:43;;;;;;;18.15;5.97;;;20.30;49.10;;;;;;6302995;28;20055;-71
2022/04/28 14:10:45;;;;;;;20.92;6.43;;;20.30;49.20;;;;;;6320205;28;20020;-71
2022/04/28 14:13:46;;;;;;;16.38;6.03;;;20.40;49.40;;;;;;6310508;28;20024;-71
2022/04/28 14:16:48;;;;;;;17.55;6.35;;;20.40;49.40;;;;;;6329181;28;20016;-71
2022/04/28 14:19:49;;;;;;;16.27;6.32;;;20.40;49.70;;;;;;6347083;28;20027;-71
2022/04/28 14:22:49;;;;;;;17.15;6.20;;;20.30;49.70;;;;;;6323235;28;20020;-71
2022/04/28 14:25:50;;;;;;;14.80;5.72;;;20.40;49.80;;;;;;6321547;28;20051;-71
2022/04/28 14:28:51;;;;;;;21.52;6.75;;;20.40;50.20;;;;;;6321621;28;20024;-72
2022/04/28 14:31:51;;;;;;;12.65;5.32;;;20.40;50.60;;;;;;6313278;28;20021;-71
2022/04/28 14:34:52;;;;;;;16.20;5.22;;;20.50;51.00;;;;;;6278453;28;20024;-72
2022/04/28 14:37:53;;;;;;;14.15;5.43;;;20.40;50.60;;;;;;6296339;28;20505;-71
2022/04/28 14:40:55;;;;;;;15.68;5.88;;;20.40;50.60;;;;;;6297185;28;20048;-71
2022/04/28 14:43:56;;;;;;;13.18;5.93;;;20.40;51.30;;;;;;6320931;28;20035;-72
2022/04/28 14:46:58;;;;;;;15.85;5.30;;;20.40;50.70;;;;;;6321107;28;20115;-71
2022/04/28 14:53:17;;;;;;;14.00;5.03;;;20.40;50.80;;;;;;6320828;28;20024;-71
2022/04/28 14:56:18;;;;;;;16.08;5.35;;;20.40;50.80;;;;;;6302979;28;20031;-71
2022/04/28 14:59:19;;;;;;;14.98;5.07;;;20.40;50.80;;;;;;6320185;28;20039;-71
2022/04/28 15:02:21;;;;;;;15.35;5.13;;;20.40;50.80;;;;;;6303031;28;20093;-71
2022/04/28 15:05:22;;;;;;;12.43;4.75;;;20.40;50.90;;;;;;6302182;28;20028;-71
2022/04/28 15:08:22;;;;;;;14.23;5.00;;;20.40;50.90;;;;;;6302223;28;20027;-71
2022/04/28 15:11:23;;;;;;;11.45;4.60;;;20.40;51.00;;;;;;6320798;28;20501;-71
2022/04/28 15:14:24;;;;;;;16.42;5.88;;;20.40;51.10;;;;;;6332343;28;20027;-71
2022/04/28 15:17:25;;;;;;;14.15;5.38;;;20.40;51.10;;;;;;6345772;28;20521;-71
2022/04/28 15:20:26;;;;;;;12.07;4.55;;;20.40;51.20;;;;;;6341336;28;20020;-71
2022/04/28 15:23:26;;;;;;;11.70;4.45;;;20.40;51.30;;;;;;6320091;28;20070;-71
2022/04/28 15:26:27;;;;;;;11.75;4.30;;;20.40;51.40;;;;;;6319426;28;20024;-71
2022/04/28 15:29:29;;;;;;;10.85;4.63;;;20.40;51.40;;;;;;6301867;28;20419;-71
2022/04/28 15:32:32;;;;;;;7.38;3.53;;;20.30;51.40;;;;;;6320239;28;20482;-71
2022/04/28 15:35:32;;;;;;;10.85;4.40;;;20.40;51.60;;;;;;6319805;28;20090;-71
2022/04/28 15:38:33;;;;;;;11.10;3.78;;;20.40;51.60;;;;;;6319884;28;20522;-71
2022/04/28 15:41:38;;;;;;;8.60;3.70;;;20.40;51.70;;;;;;6319930;28;20107;-71
2022/04/28 15:44:40;;;;;;;;;;;20.40;51.70;;;;;;6320420;28;20819;-71
2022/04/28 15:47:40;;;;;;;10.35;4.15;;;20.40;51.70;;;;;;6320436;28;19914;-71
2022/04/28 15:50:42;;;;;;;9.23;4.20;;;20.30;51.70;;;;;;6301778;28;20115;-71
2022/04/28 15:53:43;;;;;;;9.82;3.85;;;20.40;51.90;;;;;;6319605;28;20105;-71
2022/04/28 15:56:43;;;;;;;8.98;3.90;;;20.40;52.00;;;;;;6301745;28;20368;-72
2022/04/28 15:59:44;;;;;;;8.55;3.50;;;20.40;52.20;;;;;;6300493;28;20039;-71
2022/04/28 16:02:45;;;;;;;8.43;3.42;;;20.40;52.30;;;;;;6301622;28;20035;-71
2022/04/28 16:05:46;;;;;;;9.18;3.53;;;20.40;52.40;;;;;;6320607;28;20024;-71
2022/04/28 16:08:46;;;;;;;9.52;3.78;;;20.30;52.50;;;;;;6300745;28;20504;-71
2022/04/28 16:11:47;;;;;;;8.60;3.90;;;20.40;52.70;;;;;;6319065;28;20032;-72
2022/04/28 16:14:47;;;;;;;9.00;3.33;;;20.40;52.60;;;;;;6317600;28;20028;-72
2022/04/28 16:17:48;;;;;;;9.90;3.72;;;20.40;52.60;;;;;;6317387;28;20804;-72
2022/04/28 16:20:49;;;;;;;7.07;3.35;;;20.40;52.60;;;;;;6316517;28;20031;-72
2022/04/28 16:23:50;;;;;;;7.40;3.30;;;20.40;52.50;;;;;;6316670;28;20030;-71
2022/04/28 16:26:50;;;;;;;8.27;3.00;;;20.40;52.50;;;;;;6316677;28;20053;-72